createdAt,value
2022-08-14T00:01:36.920Z,5.35
2022-08-14T00:04:32.244Z,5.38
2022-08-14T00:06:50.672Z,5.25
2022-08-14T00:09:17.681Z,4.45
2022-08-14T00:11:44.463Z,5.13
2022-08-14T00:14:17.340Z,5.10
2022-08-14T00:16:45.173Z,6.13
2022-08-14T00:19:19.487Z,5.63
2022-08-14T00:21:52.428Z,5.32
2022-08-14T00:24:23.388Z,6.03
2022-08-14T00:26:56.256Z,5.10
2022-08-14T00:29:25.384Z,4.72
2022-08-14T00:31:54.528Z,6.07
2022-08-14T00:34:36.534Z,4.70
2022-08-14T00:37:11.682Z,4.40
2022-08-14T00:39:39.755Z,5.47
2022-08-14T00:42:07.636Z,4.45
2022-08-14T00:44:48.646Z,4.70
2022-08-14T00:47:17.568Z,4.70
2022-08-14T00:49:45.602Z,5.30
2022-08-14T00:52:18.033Z,4.20
2022-08-14T00:54:46.156Z,4.80
2022-08-14T00:57:13.049Z,4.63
2022-08-14T00:59:41.414Z,5.35
2022-08-14T01:02:09.674Z,5.30
2022-08-14T01:04:54.009Z,6.07
2022-08-14T01:07:23.035Z,5.30
2022-08-14T01:09:55.866Z,5.45
2022-08-14T01:12:27.065Z,4.88
2022-08-14T01:15:02.057Z,5.38
2022-08-14T01:17:50.844Z,4.68
2022-08-14T01:20:40.647Z,5.38
2022-08-14T01:23:16.104Z,5.10
2022-08-14T01:25:48.144Z,4.63
2022-08-14T01:28:46.999Z,5.20
2022-08-14T01:31:05.908Z,5.38
2022-08-14T01:33:59.101Z,5.20
2022-08-14T01:36:23.010Z,4.28
2022-08-14T01:38:51.796Z,4.93
2022-08-14T01:41:23.066Z,5.20
2022-08-14T01:44:02.470Z,5.43
2022-08-14T01:46:36.753Z,5.50
2022-08-14T01:49:07.557Z,5.32
2022-08-14T01:51:35.258Z,4.95
2022-08-14T01:54:21.159Z,4.68
2022-08-14T01:56:56.914Z,4.70
2022-08-14T01:59:37.893Z,5.18
2022-08-14T02:02:19.895Z,5.70
2022-08-14T02:04:57.253Z,5.10
2022-08-14T02:07:27.276Z,4.85
2022-08-14T02:10:15.412Z,4.70
2022-08-14T02:12:43.471Z,5.22
2022-08-14T02:15:11.474Z,4.85
2022-08-14T02:17:38.911Z,4.82
2022-08-14T02:20:08.579Z,5.18
2022-08-14T02:22:47.235Z,4.18
2022-08-14T02:25:16.752Z,5.15
2022-08-14T02:28:24.385Z,4.90
2022-08-14T02:30:33.853Z,5.82
2022-08-14T02:33:01.571Z,5.75
2022-08-14T02:35:32.849Z,5.90
2022-08-14T02:38:00.985Z,6.13
2022-08-14T02:40:33.800Z,7.07
2022-08-14T02:43:02.678Z,6.18
2022-08-14T02:45:38.886Z,6.32
2022-08-14T02:49:04.190Z,6.40
2022-08-14T02:51:04.115Z,6.43
2022-08-14T02:53:31.634Z,6.07
2022-08-14T02:56:02.562Z,6.07
2022-08-14T02:58:33.048Z,4.97
2022-08-14T03:01:01.305Z,5.47
2022-08-14T03:03:31.714Z,5.28
2022-08-14T03:06:00.254Z,5.47
2022-08-14T03:08:31.815Z,5.30
2022-08-14T03:10:59.675Z,5.28
2022-08-14T03:13:27.416Z,6.13
2022-08-14T03:15:58.016Z,5.22
2022-08-14T03:18:31.218Z,5.18
2022-08-14T03:21:07.944Z,5.43
2022-08-14T03:23:38.597Z,5.25
2022-08-14T03:26:30.179Z,5.10
2022-08-14T03:29:01.120Z,5.05
2022-08-14T03:31:29.456Z,4.85
2022-08-14T03:34:00.160Z,5.68
2022-08-14T03:37:37.633Z,4.88
2022-08-14T03:39:22.729Z,5.10
2022-08-14T03:41:53.835Z,5.97
2022-08-14T03:45:18.984Z,5.55
2022-08-14T03:47:08.394Z,5.15
2022-08-14T03:49:35.286Z,5.60
2022-08-14T03:52:28.016Z,5.70
2022-08-14T03:54:55.723Z,5.78
2022-08-14T03:57:22.807Z,6.18
2022-08-14T03:59:50.638Z,5.00
2022-08-14T04:02:33.019Z,5.78
2022-08-14T04:05:12.741Z,5.40
2022-08-14T04:07:49.967Z,5.53
2022-08-14T04:10:32.696Z,4.65
2022-08-14T04:13:04.470Z,5.53
2022-08-14T04:15:55.960Z,4.90
2022-08-14T04:18:21.564Z,5.50
2022-08-14T04:20:51.724Z,5.65
2022-08-14T04:23:29.709Z,5.28
2022-08-14T04:26:01.267Z,4.80
2022-08-14T04:29:08.053Z,5.47
2022-08-14T04:31:16.106Z,4.82
2022-08-14T04:33:42.884Z,5.18
2022-08-14T04:36:15.917Z,5.90
2022-08-14T04:39:02.837Z,5.18
2022-08-14T04:41:48.310Z,5.35
2022-08-14T04:44:36.136Z,5.43
2022-08-14T04:47:23.811Z,5.10
2022-08-14T04:49:56.939Z,5.85
2022-08-14T04:52:24.896Z,6.10
2022-08-14T04:54:52.386Z,5.25
2022-08-14T04:57:21.866Z,5.57
2022-08-14T04:59:49.594Z,5.45
2022-08-14T05:02:18.223Z,5.43
2022-08-14T05:04:56.806Z,5.50
2022-08-14T05:07:54.416Z,5.43
2022-08-14T05:10:16.773Z,5.47
2022-08-14T05:13:13.510Z,5.35
2022-08-14T05:15:39.640Z,5.15
2022-08-14T05:18:17.784Z,5.47
2022-08-14T05:21:57.477Z,5.13
2022-08-14T05:23:48.779Z,5.53
2022-08-14T05:26:18.267Z,5.38
2022-08-14T05:28:46.161Z,5.43
2022-08-14T05:31:20.755Z,5.18
2022-08-14T05:33:56.561Z,6.10
2022-08-14T05:36:25.697Z,5.40
2022-08-14T05:38:54.045Z,5.30
2022-08-14T05:41:22.257Z,5.70
2022-08-14T05:43:49.464Z,5.35
2022-08-14T05:46:22.697Z,5.80
2022-08-14T05:48:57.297Z,5.57
2022-08-14T05:51:25.565Z,6.32
2022-08-14T05:54:01.549Z,5.97
2022-08-14T05:56:38.999Z,5.90
2022-08-14T05:59:06.110Z,5.72
2022-08-14T06:01:34.291Z,5.47
2022-08-14T06:04:02.098Z,5.75
2022-08-14T06:06:36.428Z,5.10
2022-08-14T06:09:05.673Z,5.53
2022-08-14T06:11:36.803Z,5.23
2022-08-14T06:14:03.606Z,6.82
2022-08-14T06:16:30.380Z,6.13
2022-08-14T06:19:00.175Z,6.05
2022-08-14T06:21:27.374Z,5.47
2022-08-14T06:23:54.103Z,5.43
2022-08-14T06:26:22.388Z,6.32
2022-08-14T06:28:52.102Z,5.80
2022-08-14T06:31:20.979Z,5.80
2022-08-14T06:35:04.398Z,6.20
2022-08-14T06:36:36.659Z,6.03
2022-08-14T06:39:03.941Z,5.90
2022-08-14T06:41:58.290Z,5.72
2022-08-14T06:44:30.349Z,5.70
2022-08-14T06:46:59.863Z,5.80
2022-08-14T06:49:27.301Z,6.25
2022-08-14T06:51:57.084Z,5.32
2022-08-14T06:54:23.785Z,6.50
2022-08-14T06:56:58.578Z,5.95
2022-08-14T06:59:25.281Z,5.45
2022-08-14T07:02:13.134Z,6.28
2022-08-14T07:04:59.044Z,5.88
2022-08-14T07:07:25.711Z,5.47
2022-08-14T07:09:55.464Z,5.55
2022-08-14T07:12:55.044Z,5.00
2022-08-14T07:15:09.848Z,5.35
2022-08-14T07:17:47.096Z,5.25
2022-08-14T07:20:20.555Z,5.53
2022-08-14T07:23:05.331Z,5.18
2022-08-14T07:25:37.462Z,5.78
2022-08-14T07:28:23.780Z,6.22
2022-08-14T07:30:52.521Z,5.80
2022-08-14T07:33:29.212Z,6.20
2022-08-14T07:36:00.014Z,6.65
2022-08-14T07:38:33.704Z,5.85
2022-08-14T07:41:11.673Z,6.72
2022-08-14T07:43:42.828Z,6.53
2022-08-14T07:46:10.837Z,6.65
2022-08-14T07:48:43.803Z,8.02
2022-08-14T07:51:11.496Z,6.72
2022-08-14T07:53:40.717Z,7.05
2022-08-14T07:56:44.519Z,6.35
2022-08-14T07:58:58.402Z,5.93
2022-08-14T08:01:26.316Z,5.93
2022-08-14T08:03:59.535Z,6.07
2022-08-14T08:06:27.564Z,6.45
2022-08-14T08:09:01.229Z,5.53
2022-08-14T08:11:34.794Z,5.90
2022-08-14T08:14:17.311Z,6.65
2022-08-14T08:16:50.982Z,5.88
2022-08-14T08:19:19.246Z,5.95
2022-08-14T08:21:47.106Z,6.28
2022-08-14T08:24:20.152Z,6.47
2022-08-14T08:26:50.256Z,7.40
2022-08-14T08:29:28.294Z,6.80
2022-08-14T08:31:55.903Z,7.30
2022-08-14T08:34:24.140Z,6.95
2022-08-14T08:36:51.672Z,6.93
2022-08-14T08:39:22.400Z,6.28
2022-08-14T08:41:53.181Z,6.68
2022-08-14T08:44:31.938Z,6.80
2022-08-14T08:47:05.550Z,6.47
2022-08-14T08:49:43.223Z,6.35
2022-08-14T08:52:25.165Z,6.93
2022-08-14T08:54:58.014Z,6.85
2022-08-14T08:57:25.566Z,6.22
2022-08-14T08:59:55.328Z,7.30
2022-08-14T09:02:27.555Z,6.75
2022-08-14T09:05:02.015Z,7.30
2022-08-14T09:07:28.815Z,6.55
2022-08-14T09:10:00.030Z,7.65
2022-08-14T09:12:32.129Z,7.55
2022-08-14T09:15:13.387Z,7.75
2022-08-14T09:17:42.323Z,6.72
2022-08-14T09:20:11.512Z,6.93
2022-08-14T09:22:47.830Z,7.03
2022-08-14T09:25:16.568Z,6.85
2022-08-14T09:27:43.758Z,6.53
2022-08-14T09:30:31.633Z,6.20
2022-08-14T09:33:30.598Z,6.88
2022-08-14T09:36:36.142Z,6.47
2022-08-14T09:39:42.275Z,6.30
2022-08-14T09:42:45.278Z,6.70
2022-08-14T09:45:25.317Z,6.57
2022-08-14T09:47:57.645Z,5.97
2022-08-14T09:50:30.046Z,5.60
2022-08-14T09:53:04.759Z,6.30
2022-08-14T09:55:42.640Z,7.30
2022-08-14T09:58:19.859Z,6.45
2022-08-14T10:00:54.906Z,5.18
2022-08-14T10:03:33.840Z,7.18
2022-08-14T10:06:13.726Z,6.75
2022-08-14T10:08:53.099Z,6.18
2022-08-14T10:11:25.019Z,6.60
2022-08-14T10:14:21.133Z,6.28
2022-08-14T10:17:05.206Z,6.55
2022-08-14T10:19:36.444Z,6.75
2022-08-14T10:23:15.168Z,6.38
2022-08-14T10:24:55.677Z,7.38
2022-08-14T10:27:25.300Z,6.65
2022-08-14T10:30:01.004Z,7.20
2022-08-14T10:32:39.964Z,6.93
2022-08-14T10:35:14.572Z,7.07
2022-08-14T10:37:52.642Z,7.60
2022-08-14T10:40:37.506Z,7.72
2022-08-14T10:43:22.972Z,6.68
2022-08-14T10:46:03.454Z,8.10
2022-08-14T10:48:55.066Z,6.97
2022-08-14T10:51:30.205Z,7.75
2022-08-14T10:54:26.085Z,7.40
2022-08-14T10:57:20.697Z,7.32
2022-08-14T10:59:59.693Z,6.80
2022-08-14T11:02:54.254Z,7.25
2022-08-14T11:05:23.634Z,7.20
2022-08-14T11:08:02.611Z,7.47
2022-08-14T11:10:45.851Z,7.63
2022-08-14T11:13:27.377Z,7.95
2022-08-14T11:16:00.534Z,7.32
2022-08-14T11:18:30.295Z,7.75
2022-08-14T11:21:06.770Z,6.95
2022-08-14T11:23:38.668Z,7.00
2022-08-14T11:26:08.729Z,6.75
2022-08-14T11:28:46.863Z,6.75
2022-08-14T11:31:19.559Z,8.00
2022-08-14T11:33:50.350Z,7.57
2022-08-14T11:36:18.753Z,7.57
2022-08-14T11:38:46.834Z,7.78
2022-08-14T11:41:16.963Z,7.15
2022-08-14T11:43:58.565Z,6.40
2022-08-14T11:46:29.735Z,5.68
2022-08-14T11:49:05.568Z,6.72
2022-08-14T11:51:42.924Z,5.90
2022-08-14T11:54:34.674Z,7.30
2022-08-14T11:57:02.382Z,6.63
2022-08-14T11:59:33.854Z,6.07
2022-08-14T12:02:39.109Z,5.90
2022-08-14T12:05:01.038Z,6.18
2022-08-14T12:07:31.210Z,6.38
2022-08-14T12:09:59.471Z,7.28
2022-08-14T12:12:35.295Z,6.53
2022-08-14T12:15:04.013Z,6.50
2022-08-14T12:17:47.530Z,6.70
2022-08-14T12:20:32.251Z,6.65
2022-08-14T12:23:01.496Z,6.30
2022-08-14T12:25:29.270Z,7.22
2022-08-14T12:27:59.382Z,7.50
2022-08-14T12:33:30.906Z,6.60
2022-08-14T12:36:04.376Z,6.57
2022-08-14T12:38:44.379Z,7.03
2022-08-14T12:41:21.950Z,6.93
2022-08-14T12:44:01.907Z,6.47
2022-08-14T12:46:46.611Z,6.72
2022-08-14T12:49:18.899Z,6.80
2022-08-14T12:54:28.181Z,7.13
2022-08-14T12:57:14.599Z,6.38
2022-08-14T12:59:46.103Z,6.97
2022-08-14T13:02:25.412Z,7.28
2022-08-14T13:04:55.592Z,6.68
2022-08-14T13:07:22.505Z,6.43
2022-08-14T13:09:56.267Z,6.47
2022-08-14T13:12:32.332Z,7.00
2022-08-14T13:15:08.853Z,6.95
2022-08-14T13:17:41.980Z,6.43
2022-08-14T13:20:24.390Z,7.10
2022-08-14T13:22:54.957Z,7.35
2022-08-14T13:25:27.391Z,6.25
2022-08-14T13:27:57.837Z,6.95
2022-08-14T13:30:25.884Z,7.53
2022-08-14T13:32:58.017Z,7.88
2022-08-14T13:35:26.421Z,7.10
2022-08-14T13:37:54.109Z,6.97
2022-08-14T13:40:26.661Z,7.55
2022-08-14T13:42:55.391Z,7.95
2022-08-14T13:45:33.886Z,6.70
2022-08-14T13:48:19.152Z,6.85
2022-08-14T13:50:59.720Z,7.07
2022-08-14T13:53:33.804Z,7.03
2022-08-14T13:56:01.578Z,6.90
2022-08-14T13:58:34.555Z,6.22
2022-08-14T14:01:02.688Z,6.97
2022-08-14T14:03:35.210Z,6.93
2022-08-14T14:06:03.544Z,6.55
2022-08-14T14:08:46.851Z,7.25
2022-08-14T14:11:24.203Z,6.60
2022-08-14T14:13:58.413Z,6.72
2022-08-14T14:16:30.665Z,6.40
2022-08-14T14:19:09.489Z,6.45
2022-08-14T14:21:37.652Z,6.25
2022-08-14T14:24:06.168Z,7.15
2022-08-14T14:26:33.354Z,6.93
2022-08-14T14:29:06.331Z,7.32
2022-08-14T14:31:36.560Z,6.97
2022-08-14T14:34:07.709Z,6.07
2022-08-14T14:36:50.100Z,7.45
2022-08-14T14:39:21.924Z,6.40
2022-08-14T14:41:56.412Z,6.75
2022-08-14T14:44:26.804Z,7.20
2022-08-14T14:46:53.832Z,7.40
2022-08-14T14:49:31.845Z,7.38
2022-08-14T14:52:13.952Z,7.60
2022-08-14T14:54:53.188Z,6.85
2022-08-14T14:57:19.878Z,6.80
2022-08-14T14:59:46.709Z,6.55
2022-08-14T15:02:33.748Z,6.30
2022-08-14T15:05:00.925Z,7.03
2022-08-14T15:07:29.760Z,6.25
2022-08-14T15:09:56.614Z,7.03
2022-08-14T15:12:55.663Z,6.40
2022-08-14T15:15:12.278Z,6.90
2022-08-14T15:17:43.333Z,6.95
2022-08-14T15:20:17.495Z,6.82
2022-08-14T15:22:57.180Z,6.68
2022-08-14T15:25:24.337Z,6.13
2022-08-14T15:27:54.362Z,6.20
2022-08-14T15:30:24.322Z,6.70
2022-08-14T15:32:58.699Z,7.88
2022-08-14T15:35:25.852Z,6.40
2022-08-14T15:37:56.482Z,7.78
2022-08-14T15:40:23.656Z,6.75
2022-08-14T15:42:50.858Z,7.10
2022-08-14T15:45:18.959Z,6.97
2022-08-14T15:47:45.641Z,6.55
2022-08-14T15:50:13.063Z,7.88
2022-08-14T15:52:41.516Z,6.30
2022-08-14T15:55:15.455Z,7.03
2022-08-14T15:57:51.765Z,6.97
2022-08-14T16:00:54.909Z,7.53
2022-08-14T16:03:27.665Z,7.47
2022-08-14T16:06:10.843Z,8.23
2022-08-14T16:08:44.039Z,6.93
2022-08-14T16:11:12.454Z,7.10
2022-08-14T16:13:47.676Z,6.70
2022-08-14T16:16:47.293Z,7.55
2022-08-14T16:19:18.822Z,6.78
2022-08-14T16:22:02.472Z,7.45
2022-08-14T16:25:00.120Z,6.88
2022-08-14T16:27:37.072Z,8.00
2022-08-14T16:30:25.000Z,7.57
2022-08-14T16:32:57.155Z,8.13
2022-08-14T16:35:43.228Z,7.68
2022-08-14T16:38:44.375Z,6.82
2022-08-14T16:41:23.240Z,7.20
2022-08-14T16:44:04.643Z,8.02
2022-08-14T16:46:43.978Z,7.60
2022-08-14T16:49:13.786Z,7.53
2022-08-14T16:51:41.303Z,6.93
2022-08-14T16:54:34.209Z,7.30
2022-08-14T16:57:20.787Z,6.70
2022-08-14T16:59:52.315Z,6.95
2022-08-14T17:02:42.721Z,7.65
2022-08-14T17:05:17.620Z,7.70
2022-08-14T17:08:31.604Z,6.35
2022-08-14T17:11:09.790Z,6.82
2022-08-14T17:13:58.154Z,7.57
2022-08-14T17:16:26.029Z,8.27
2022-08-14T17:19:00.735Z,7.63
2022-08-14T17:21:38.385Z,6.88
2022-08-14T17:24:51.683Z,7.63
2022-08-14T17:26:57.538Z,7.00
2022-08-14T17:29:31.258Z,7.32
2022-08-14T17:32:28.416Z,7.82
2022-08-14T17:34:57.661Z,7.15
2022-08-14T17:37:45.224Z,7.55
2022-08-14T17:40:25.987Z,7.82
2022-08-14T17:43:01.751Z,7.43
2022-08-14T17:45:51.050Z,7.68
2022-08-14T17:49:10.031Z,7.65
2022-08-14T17:51:24.249Z,7.05
2022-08-14T17:54:02.389Z,7.40
2022-08-14T17:56:31.521Z,7.15
2022-08-14T17:59:05.183Z,7.40
2022-08-14T18:01:37.794Z,7.05
2022-08-14T18:04:24.366Z,6.97
2022-08-14T18:06:57.814Z,7.38
2022-08-14T18:09:57.320Z,7.10
2022-08-14T18:12:36.478Z,7.78
2022-08-14T18:15:17.331Z,7.30
2022-08-14T18:17:53.262Z,7.82
2022-08-14T18:21:39.634Z,7.47
2022-08-14T18:23:12.810Z,7.82
2022-08-14T18:25:47.320Z,7.85
2022-08-14T18:28:18.387Z,6.72
2022-08-14T18:31:44.069Z,7.53
2022-08-14T18:34:32.008Z,7.20
2022-08-14T18:37:12.524Z,7.30
2022-08-14T18:40:01.418Z,6.97
2022-08-14T18:42:50.866Z,7.32
2022-08-14T18:45:28.481Z,7.60
2022-08-14T18:48:50.727Z,7.93
2022-08-14T18:51:45.578Z,7.65
2022-08-14T18:54:29.983Z,7.65
2022-08-14T18:57:02.699Z,7.97
2022-08-14T18:59:39.248Z,7.43
2022-08-14T19:02:43.781Z,7.88
2022-08-14T19:05:10.875Z,7.47
2022-08-14T19:07:37.548Z,8.05
2022-08-14T19:10:06.954Z,8.43
2022-08-14T19:12:56.830Z,7.70
2022-08-14T19:15:38.080Z,7.93
2022-08-14T19:18:30.742Z,8.35
2022-08-14T19:21:13.304Z,7.97
2022-08-14T19:23:42.787Z,8.07
2022-08-14T19:26:35.769Z,7.93
2022-08-14T19:29:38.265Z,7.97
2022-08-14T19:32:40.774Z,8.70
2022-08-14T19:35:19.515Z,8.23
2022-08-14T19:37:52.546Z,9.20
2022-08-14T19:40:42.795Z,7.65
2022-08-14T19:43:10.664Z,7.85
2022-08-14T19:45:38.716Z,7.95
2022-08-14T19:48:15.808Z,8.38
2022-08-14T19:50:46.276Z,8.45
2022-08-14T19:53:17.304Z,8.00
2022-08-14T19:55:58.647Z,8.27
2022-08-14T19:58:55.514Z,8.80
2022-08-14T20:01:37.211Z,8.07
2022-08-14T20:04:08.092Z,9.18
2022-08-14T20:06:56.009Z,8.05
2022-08-14T20:11:03.674Z,8.63
2022-08-14T20:12:35.057Z,8.43
2022-08-14T20:15:15.414Z,8.32
2022-08-14T20:17:52.215Z,8.90
2022-08-14T20:20:30.760Z,8.73
2022-08-14T20:23:11.160Z,8.57
2022-08-14T20:25:45.327Z,8.93
2022-08-14T20:28:30.742Z,9.68
2022-08-14T20:31:17.641Z,8.90
2022-08-14T20:34:24.862Z,8.80
2022-08-14T20:37:04.198Z,8.98
2022-08-14T20:39:34.398Z,8.43
2022-08-14T20:42:30.384Z,9.37
2022-08-14T20:45:19.947Z,7.93
2022-08-14T20:48:01.857Z,9.00
2022-08-14T20:50:34.263Z,9.27
2022-08-14T20:53:25.323Z,8.32
2022-08-14T20:55:53.538Z,8.45
2022-08-14T20:58:45.903Z,9.35
2022-08-14T21:01:35.895Z,9.32
2022-08-14T21:04:05.115Z,9.55
2022-08-14T21:07:23.468Z,9.23
2022-08-14T21:10:05.535Z,9.02
2022-08-14T21:12:33.677Z,8.68
2022-08-14T21:15:03.901Z,8.88
2022-08-14T21:17:32.303Z,9.02
2022-08-14T21:20:26.547Z,10.95
2022-08-14T21:22:53.842Z,8.20
2022-08-14T21:25:23.378Z,8.45
2022-08-14T21:27:55.899Z,10.23
2022-08-14T21:30:51.350Z,10.05
2022-08-14T21:33:12.233Z,9.05
2022-08-14T21:35:44.496Z,10.07
2022-08-14T21:38:17.955Z,9.40
2022-08-14T21:40:48.767Z,9.65
2022-08-14T21:43:21.139Z,10.45
2022-08-14T21:45:53.647Z,10.05
2022-08-14T21:48:26.474Z,9.48
2022-08-14T21:51:02.007Z,9.57
2022-08-14T21:53:58.625Z,10.00
2022-08-14T21:56:38.665Z,9.98
2022-08-14T21:59:17.719Z,11.18
2022-08-14T22:01:59.507Z,11.00
2022-08-14T22:04:33.469Z,10.07
2022-08-14T22:07:10.300Z,9.88
2022-08-14T22:09:37.938Z,9.82
2022-08-14T22:12:10.880Z,10.35
2022-08-14T22:14:59.868Z,10.05
2022-08-14T22:17:32.178Z,10.32
2022-08-14T22:20:12.484Z,10.20
2022-08-14T22:22:43.730Z,10.85
2022-08-14T22:25:17.464Z,11.63
2022-08-14T22:27:55.314Z,10.95
2022-08-14T22:30:24.799Z,10.50
2022-08-14T22:32:57.462Z,10.45
2022-08-14T22:35:25.942Z,9.88
2022-08-14T22:38:36.662Z,10.95
2022-08-14T22:41:01.782Z,11.10
2022-08-14T22:43:31.803Z,11.68
2022-08-14T22:46:02.361Z,10.07
2022-08-14T22:48:29.939Z,11.23
2022-08-14T22:50:57.098Z,10.75
2022-08-14T22:53:24.561Z,11.60
2022-08-14T22:55:56.709Z,12.13
2022-08-14T22:58:31.386Z,11.07
2022-08-14T23:01:10.581Z,11.05
2022-08-14T23:03:42.426Z,11.13
2022-08-14T23:07:04.141Z,10.50
2022-08-14T23:09:34.826Z,10.48
2022-08-14T23:11:46.770Z,10.88
2022-08-14T23:14:15.300Z,10.93
2022-08-14T23:16:57.523Z,10.77
2022-08-14T23:19:25.559Z,10.15
2022-08-14T23:22:01.889Z,10.02
2022-08-14T23:24:28.650Z,10.88
2022-08-14T23:26:56.105Z,10.60
2022-08-14T23:29:22.773Z,10.95
2022-08-14T23:31:50.056Z,11.45
2022-08-14T23:34:20.892Z,11.32
2022-08-14T23:36:54.119Z,10.30
2022-08-14T23:39:30.202Z,12.05
2022-08-14T23:42:07.588Z,11.32
2022-08-14T23:44:37.708Z,12.50
2022-08-14T23:47:10.679Z,11.10
2022-08-14T23:49:56.542Z,11.98
2022-08-14T23:52:56.391Z,11.13
2022-08-14T23:55:13.607Z,12.77
2022-08-14T23:57:43.528Z,11.30
